sensor_id;sensor_type;location;lat;lon;timestamp;P1;durP1;ratioP1;P2;durP2;ratioP2
17913;SDS011;9082;50.742;8.238;2022-08-19T00:00:50;29.73;;;16.53;;
17913;SDS011;9082;50.742;8.238;2022-08-19T00:03:18;30.27;;;16.33;;
17913;SDS011;9082;50.742;8.238;2022-08-19T00:05:45;32.03;;;16.63;;
17913;SDS011;9082;50.742;8.238;2022-08-19T00:08:12;30.37;;;17.07;;
17913;SDS011;9082;50.742;8.238;2022-08-19T00:10:39;27.87;;;16.07;;
17913;SDS011;9082;50.742;8.238;2022-08-19T00:13:06;29.67;;;16.67;;
17913;SDS011;9082;50.742;8.238;2022-08-19T00:15:34;31.70;;;17.17;;
17913;SDS011;9082;50.742;8.238;2022-08-19T00:18:03;29.47;;;16.90;;
17913;SDS011;9082;50.742;8.238;2022-08-19T00:20:30;30.63;;;16.67;;
17913;SDS011;9082;50.742;8.238;2022-08-19T00:22:57;32.67;;;17.10;;
17913;SDS011;9082;50.742;8.238;2022-08-19T00:25:24;29.67;;;16.87;;
17913;SDS011;9082;50.742;8.238;2022-08-19T00:27:51;31.50;;;16.33;;
17913;SDS011;9082;50.742;8.238;2022-08-19T00:30:19;32.07;;;16.37;;
17913;SDS011;9082;50.742;8.238;2022-08-19T00:32:46;31.00;;;16.93;;
17913;SDS011;9082;50.742;8.238;2022-08-19T00:35:14;29.80;;;16.33;;
17913;SDS011;9082;50.742;8.238;2022-08-19T00:37:42;31.53;;;17.70;;
17913;SDS011;9082;50.742;8.238;2022-08-19T00:40:10;35.03;;;17.63;;
17913;SDS011;9082;50.742;8.238;2022-08-19T00:42:38;33.23;;;17.80;;
17913;SDS011;9082;50.742;8.238;2022-08-19T00:45:09;30.90;;;16.67;;
17913;SDS011;9082;50.742;8.238;2022-08-19T00:47:36;38.53;;;18.67;;
17913;SDS011;9082;50.742;8.238;2022-08-19T00:50:04;34.20;;;18.37;;
17913;SDS011;9082;50.742;8.238;2022-08-19T00:52:34;33.03;;;18.57;;
17913;SDS011;9082;50.742;8.238;2022-08-19T00:55:02;31.00;;;17.90;;
17913;SDS011;9082;50.742;8.238;2022-08-19T00:57:31;34.37;;;18.67;;
17913;SDS011;9082;50.742;8.238;2022-08-19T00:59:59;33.33;;;18.53;;
17913;SDS011;9082;50.742;8.238;2022-08-19T01:02:28;34.33;;;19.30;;
17913;SDS011;9082;50.742;8.238;2022-08-19T01:04:56;35.13;;;18.33;;
17913;SDS011;9082;50.742;8.238;2022-08-19T01:07:23;31.67;;;17.90;;
17913;SDS011;9082;50.742;8.238;2022-08-19T01:09:52;32.67;;;17.93;;
17913;SDS011;9082;50.742;8.238;2022-08-19T01:12:20;34.07;;;18.63;;
17913;SDS011;9082;50.742;8.238;2022-08-19T01:14:47;27.53;;;17.47;;
17913;SDS011;9082;50.742;8.238;2022-08-19T01:17:15;30.33;;;17.33;;
17913;SDS011;9082;50.742;8.238;2022-08-19T01:19:43;34.57;;;18.30;;
17913;SDS011;9082;50.742;8.238;2022-08-19T01:22:14;30.33;;;16.90;;
17913;SDS011;9082;50.742;8.238;2022-08-19T01:24:44;32.77;;;18.10;;
17913;SDS011;9082;50.742;8.238;2022-08-19T01:27:13;30.97;;;18.30;;
17913;SDS011;9082;50.742;8.238;2022-08-19T01:29:41;33.13;;;17.47;;
17913;SDS011;9082;50.742;8.238;2022-08-19T01:32:09;29.20;;;17.67;;
17913;SDS011;9082;50.742;8.238;2022-08-19T01:34:38;34.50;;;18.33;;
17913;SDS011;9082;50.742;8.238;2022-08-19T01:37:06;34.30;;;17.43;;
17913;SDS011;9082;50.742;8.238;2022-08-19T01:39:36;30.60;;;17.77;;
17913;SDS011;9082;50.742;8.238;2022-08-19T01:42:05;35.80;;;18.60;;
17913;SDS011;9082;50.742;8.238;2022-08-19T01:44:34;30.37;;;17.73;;
17913;SDS011;9082;50.742;8.238;2022-08-19T01:47:02;34.43;;;18.67;;
17913;SDS011;9082;50.742;8.238;2022-08-19T01:49:30;36.13;;;19.93;;
17913;SDS011;9082;50.742;8.238;2022-08-19T01:51:58;35.87;;;19.83;;
17913;SDS011;9082;50.742;8.238;2022-08-19T01:54:26;35.00;;;19.77;;
17913;SDS011;9082;50.742;8.238;2022-08-19T01:56:55;35.87;;;20.63;;
17913;SDS011;9082;50.742;8.238;2022-08-19T01:59:25;35.37;;;19.57;;
17913;SDS011;9082;50.742;8.238;2022-08-19T02:01:53;44.80;;;21.93;;
17913;SDS011;9082;50.742;8.238;2022-08-19T02:04:20;35.00;;;21.03;;
17913;SDS011;9082;50.742;8.238;2022-08-19T02:06:48;39.97;;;22.60;;
17913;SDS011;9082;50.742;8.238;2022-08-19T02:09:15;34.93;;;21.23;;
17913;SDS011;9082;50.742;8.238;2022-08-19T02:11:42;38.80;;;21.40;;
17913;SDS011;9082;50.742;8.238;2022-08-19T02:14:09;41.80;;;21.90;;
17913;SDS011;9082;50.742;8.238;2022-08-19T02:16:38;40.37;;;21.93;;
17913;SDS011;9082;50.742;8.238;2022-08-19T02:19:05;41.37;;;22.63;;
17913;SDS011;9082;50.742;8.238;2022-08-19T02:21:33;36.83;;;21.90;;
17913;SDS011;9082;50.742;8.238;2022-08-19T02:24:00;42.10;;;21.30;;
17913;SDS011;9082;50.742;8.238;2022-08-19T02:26:28;39.10;;;22.13;;
17913;SDS011;9082;50.742;8.238;2022-08-19T02:28:55;36.27;;;20.33;;
17913;SDS011;9082;50.742;8.238;2022-08-19T02:31:24;35.47;;;20.57;;
17913;SDS011;9082;50.742;8.238;2022-08-19T02:33:54;38.53;;;21.23;;
17913;SDS011;9082;50.742;8.238;2022-08-19T02:36:22;37.80;;;20.03;;
17913;SDS011;9082;50.742;8.238;2022-08-19T02:38:49;33.47;;;20.23;;
17913;SDS011;9082;50.742;8.238;2022-08-19T02:41:17;32.53;;;19.57;;
17913;SDS011;9082;50.742;8.238;2022-08-19T02:43:44;34.80;;;19.87;;
17913;SDS011;9082;50.742;8.238;2022-08-19T02:46:12;38.20;;;20.67;;
17913;SDS011;9082;50.742;8.238;2022-08-19T02:48:40;40.33;;;20.73;;
17913;SDS011;9082;50.742;8.238;2022-08-19T02:51:08;37.70;;;20.00;;
17913;SDS011;9082;50.742;8.238;2022-08-19T02:53:35;36.33;;;20.27;;
17913;SDS011;9082;50.742;8.238;2022-08-19T02:56:05;35.67;;;19.87;;
17913;SDS011;9082;50.742;8.238;2022-08-19T02:58:33;37.67;;;20.07;;
17913;SDS011;9082;50.742;8.238;2022-08-19T03:01:00;37.43;;;21.20;;
17913;SDS011;9082;50.742;8.238;2022-08-19T03:03:27;40.00;;;20.97;;
17913;SDS011;9082;50.742;8.238;2022-08-19T03:06:09;41.40;;;21.87;;
17913;SDS011;9082;50.742;8.238;2022-08-19T03:08:37;37.93;;;21.90;;
17913;SDS011;9082;50.742;8.238;2022-08-19T03:11:05;41.13;;;23.20;;
17913;SDS011;9082;50.742;8.238;2022-08-19T03:13:32;42.10;;;21.07;;
17913;SDS011;9082;50.742;8.238;2022-08-19T03:16:03;37.13;;;19.93;;
17913;SDS011;9082;50.742;8.238;2022-08-19T03:18:31;36.43;;;19.80;;
17913;SDS011;9082;50.742;8.238;2022-08-19T03:20:58;38.07;;;21.20;;
17913;SDS011;9082;50.742;8.238;2022-08-19T03:23:26;37.60;;;20.87;;
17913;SDS011;9082;50.742;8.238;2022-08-19T03:25:54;37.73;;;21.03;;
17913;SDS011;9082;50.742;8.238;2022-08-19T03:28:21;38.93;;;21.27;;
17913;SDS011;9082;50.742;8.238;2022-08-19T03:30:55;35.20;;;19.67;;
17913;SDS011;9082;50.742;8.238;2022-08-19T03:33:23;41.80;;;20.87;;
17913;SDS011;9082;50.742;8.238;2022-08-19T03:36:00;38.70;;;20.70;;
17913;SDS011;9082;50.742;8.238;2022-08-19T03:38:29;36.27;;;20.30;;
17913;SDS011;9082;50.742;8.238;2022-08-19T03:40:57;43.17;;;22.80;;
17913;SDS011;9082;50.742;8.238;2022-08-19T03:43:24;41.80;;;22.70;;
17913;SDS011;9082;50.742;8.238;2022-08-19T03:45:59;36.93;;;21.90;;
17913;SDS011;9082;50.742;8.238;2022-08-19T03:48:29;41.47;;;22.50;;
17913;SDS011;9082;50.742;8.238;2022-08-19T03:50:56;38.13;;;21.20;;
17913;SDS011;9082;50.742;8.238;2022-08-19T03:53:24;38.40;;;21.20;;
17913;SDS011;9082;50.742;8.238;2022-08-19T03:55:53;36.57;;;20.43;;
17913;SDS011;9082;50.742;8.238;2022-08-19T03:58:21;35.50;;;21.00;;
17913;SDS011;9082;50.742;8.238;2022-08-19T04:00:49;39.53;;;21.03;;
17913;SDS011;9082;50.742;8.238;2022-08-19T04:03:16;38.53;;;20.53;;
17913;SDS011;9082;50.742;8.238;2022-08-19T04:05:44;35.53;;;18.93;;
17913;SDS011;9082;50.742;8.238;2022-08-19T04:08:12;36.47;;;19.87;;
17913;SDS011;9082;50.742;8.238;2022-08-19T04:10:43;36.00;;;20.10;;
17913;SDS011;9082;50.742;8.238;2022-08-19T04:13:12;37.00;;;21.70;;
17913;SDS011;9082;50.742;8.238;2022-08-19T04:15:40;40.03;;;22.00;;
17913;SDS011;9082;50.742;8.238;2022-08-19T04:18:07;37.73;;;21.20;;
17913;SDS011;9082;50.742;8.238;2022-08-19T04:20:39;37.53;;;21.37;;
17913;SDS011;9082;50.742;8.238;2022-08-19T04:23:06;37.33;;;20.93;;
17913;SDS011;9082;50.742;8.238;2022-08-19T04:25:37;62.80;;;22.43;;
17913;SDS011;9082;50.742;8.238;2022-08-19T04:28:04;61.13;;;22.30;;
17913;SDS011;9082;50.742;8.238;2022-08-19T04:30:38;49.63;;;21.03;;
17913;SDS011;9082;50.742;8.238;2022-08-19T04:33:05;73.03;;;23.20;;
17913;SDS011;9082;50.742;8.238;2022-08-19T04:35:34;45.83;;;21.73;;
17913;SDS011;9082;50.742;8.238;2022-08-19T04:38:02;42.63;;;21.27;;
17913;SDS011;9082;50.742;8.238;2022-08-19T04:40:29;42.67;;;21.93;;
17913;SDS011;9082;50.742;8.238;2022-08-19T04:43:14;47.47;;;22.23;;
17913;SDS011;9082;50.742;8.238;2022-08-19T04:45:43;46.50;;;21.80;;
17913;SDS011;9082;50.742;8.238;2022-08-19T04:48:10;42.00;;;22.70;;
17913;SDS011;9082;50.742;8.238;2022-08-19T04:50:39;42.83;;;21.80;;
17913;SDS011;9082;50.742;8.238;2022-08-19T04:53:07;40.47;;;23.03;;
17913;SDS011;9082;50.742;8.238;2022-08-19T04:55:34;41.50;;;21.97;;
17913;SDS011;9082;50.742;8.238;2022-08-19T04:58:04;42.53;;;21.47;;
17913;SDS011;9082;50.742;8.238;2022-08-19T05:00:32;39.20;;;20.83;;
17913;SDS011;9082;50.742;8.238;2022-08-19T05:03:00;36.47;;;20.20;;
17913;SDS011;9082;50.742;8.238;2022-08-19T05:05:27;43.00;;;21.20;;
17913;SDS011;9082;50.742;8.238;2022-08-19T05:07:56;42.47;;;20.43;;
17913;SDS011;9082;50.742;8.238;2022-08-19T05:10:23;37.20;;;21.47;;
17913;SDS011;9082;50.742;8.238;2022-08-19T05:12:50;38.43;;;21.27;;
17913;SDS011;9082;50.742;8.238;2022-08-19T05:15:17;39.67;;;21.57;;
17913;SDS011;9082;50.742;8.238;2022-08-19T05:17:45;39.13;;;21.03;;
17913;SDS011;9082;50.742;8.238;2022-08-19T05:20:27;41.23;;;21.33;;
17913;SDS011;9082;50.742;8.238;2022-08-19T05:23:12;40.90;;;20.67;;
17913;SDS011;9082;50.742;8.238;2022-08-19T05:25:40;36.23;;;20.20;;
17913;SDS011;9082;50.742;8.238;2022-08-19T05:28:08;32.43;;;19.20;;
17913;SDS011;9082;50.742;8.238;2022-08-19T05:30:35;34.47;;;19.40;;
17913;SDS011;9082;50.742;8.238;2022-08-19T05:33:02;37.37;;;19.37;;
17913;SDS011;9082;50.742;8.238;2022-08-19T05:35:31;34.77;;;18.53;;
17913;SDS011;9082;50.742;8.238;2022-08-19T05:37:58;36.63;;;19.23;;
17913;SDS011;9082;50.742;8.238;2022-08-19T05:40:25;33.80;;;18.97;;
17913;SDS011;9082;50.742;8.238;2022-08-19T05:42:52;33.90;;;19.00;;
17913;SDS011;9082;50.742;8.238;2022-08-19T05:45:19;36.37;;;18.97;;
17913;SDS011;9082;50.742;8.238;2022-08-19T05:47:47;32.47;;;19.57;;
17913;SDS011;9082;50.742;8.238;2022-08-19T05:50:14;36.57;;;19.50;;
17913;SDS011;9082;50.742;8.238;2022-08-19T05:52:43;37.10;;;19.53;;
17913;SDS011;9082;50.742;8.238;2022-08-19T05:55:11;33.10;;;19.70;;
17913;SDS011;9082;50.742;8.238;2022-08-19T05:57:38;32.67;;;19.67;;
17913;SDS011;9082;50.742;8.238;2022-08-19T06:00:06;31.53;;;18.80;;
17913;SDS011;9082;50.742;8.238;2022-08-19T06:02:35;34.93;;;18.23;;
17913;SDS011;9082;50.742;8.238;2022-08-19T06:05:03;32.60;;;17.83;;
17913;SDS011;9082;50.742;8.238;2022-08-19T06:07:34;32.87;;;17.57;;
17913;SDS011;9082;50.742;8.238;2022-08-19T06:10:03;33.67;;;18.20;;
17913;SDS011;9082;50.742;8.238;2022-08-19T06:12:31;30.67;;;17.70;;
17913;SDS011;9082;50.742;8.238;2022-08-19T06:15:00;32.80;;;18.67;;
17913;SDS011;9082;50.742;8.238;2022-08-19T06:17:27;28.70;;;17.57;;
17913;SDS011;9082;50.742;8.238;2022-08-19T06:19:55;29.67;;;17.67;;
17913;SDS011;9082;50.742;8.238;2022-08-19T06:22:23;30.43;;;18.33;;
17913;SDS011;9082;50.742;8.238;2022-08-19T06:24:50;32.10;;;18.37;;
17913;SDS011;9082;50.742;8.238;2022-08-19T06:27:20;34.87;;;17.33;;
17913;SDS011;9082;50.742;8.238;2022-08-19T06:29:47;34.13;;;18.07;;
17913;SDS011;9082;50.742;8.238;2022-08-19T06:32:15;29.43;;;17.33;;
17913;SDS011;9082;50.742;8.238;2022-08-19T06:34:43;28.63;;;16.93;;
17913;SDS011;9082;50.742;8.238;2022-08-19T06:37:10;27.13;;;16.77;;
17913;SDS011;9082;50.742;8.238;2022-08-19T06:39:39;29.47;;;16.50;;
17913;SDS011;9082;50.742;8.238;2022-08-19T06:42:06;28.63;;;16.37;;
17913;SDS011;9082;50.742;8.238;2022-08-19T06:44:38;27.03;;;16.03;;
17913;SDS011;9082;50.742;8.238;2022-08-19T06:47:08;23.37;;;15.33;;
17913;SDS011;9082;50.742;8.238;2022-08-19T06:49:35;26.30;;;16.27;;
17913;SDS011;9082;50.742;8.238;2022-08-19T06:52:03;24.33;;;15.70;;
17913;SDS011;9082;50.742;8.238;2022-08-19T06:54:30;28.13;;;16.10;;
17913;SDS011;9082;50.742;8.238;2022-08-19T06:56:58;23.10;;;14.43;;
17913;SDS011;9082;50.742;8.238;2022-08-19T06:59:27;23.00;;;14.80;;
17913;SDS011;9082;50.742;8.238;2022-08-19T07:01:59;21.80;;;14.47;;
17913;SDS011;9082;50.742;8.238;2022-08-19T07:04:27;22.80;;;14.90;;
17913;SDS011;9082;50.742;8.238;2022-08-19T07:06:59;22.50;;;14.60;;
17913;SDS011;9082;50.742;8.238;2022-08-19T07:09:26;24.53;;;13.77;;
17913;SDS011;9082;50.742;8.238;2022-08-19T07:11:54;22.60;;;13.73;;
17913;SDS011;9082;50.742;8.238;2022-08-19T07:14:23;22.53;;;13.80;;
17913;SDS011;9082;50.742;8.238;2022-08-19T07:16:51;23.33;;;12.90;;
17913;SDS011;9082;50.742;8.238;2022-08-19T07:19:30;22.67;;;13.60;;
17913;SDS011;9082;50.742;8.238;2022-08-19T07:21:57;20.77;;;13.53;;
17913;SDS011;9082;50.742;8.238;2022-08-19T07:24:27;19.73;;;12.77;;
17913;SDS011;9082;50.742;8.238;2022-08-19T07:26:57;21.80;;;12.57;;
17913;SDS011;9082;50.742;8.238;2022-08-19T07:29:28;21.30;;;12.40;;
17913;SDS011;9082;50.742;8.238;2022-08-19T07:31:56;19.70;;;12.00;;
17913;SDS011;9082;50.742;8.238;2022-08-19T07:34:24;19.57;;;12.10;;
17913;SDS011;9082;50.742;8.238;2022-08-19T07:36:52;18.47;;;11.90;;
17913;SDS011;9082;50.742;8.238;2022-08-19T07:39:21;25.83;;;11.73;;
17913;SDS011;9082;50.742;8.238;2022-08-19T07:41:48;16.87;;;10.97;;
17913;SDS011;9082;50.742;8.238;2022-08-19T07:44:16;15.47;;;10.60;;
17913;SDS011;9082;50.742;8.238;2022-08-19T07:46:50;16.17;;;10.17;;
17913;SDS011;9082;50.742;8.238;2022-08-19T07:49:18;14.27;;;10.17;;
17913;SDS011;9082;50.742;8.238;2022-08-19T07:51:45;15.47;;;10.07;;
17913;SDS011;9082;50.742;8.238;2022-08-19T07:54:14;13.60;;;9.43;;
17913;SDS011;9082;50.742;8.238;2022-08-19T07:56:41;16.23;;;10.23;;
17913;SDS011;9082;50.742;8.238;2022-08-19T07:59:09;14.27;;;9.83;;
17913;SDS011;9082;50.742;8.238;2022-08-19T08:01:36;17.07;;;9.87;;
17913;SDS011;9082;50.742;8.238;2022-08-19T08:04:05;18.97;;;9.27;;
17913;SDS011;9082;50.742;8.238;2022-08-19T08:06:50;15.90;;;9.50;;
17913;SDS011;9082;50.742;8.238;2022-08-19T08:09:37;13.93;;;9.03;;
17913;SDS011;9082;50.742;8.238;2022-08-19T08:12:07;14.63;;;8.70;;
17913;SDS011;9082;50.742;8.238;2022-08-19T08:14:36;12.70;;;8.27;;
17913;SDS011;9082;50.742;8.238;2022-08-19T08:17:04;12.40;;;8.23;;
17913;SDS011;9082;50.742;8.238;2022-08-19T08:19:32;13.13;;;8.13;;
17913;SDS011;9082;50.742;8.238;2022-08-19T08:22:00;17.60;;;7.97;;
17913;SDS011;9082;50.742;8.238;2022-08-19T08:24:28;15.43;;;8.83;;
17913;SDS011;9082;50.742;8.238;2022-08-19T08:26:58;15.63;;;9.63;;
17913;SDS011;9082;50.742;8.238;2022-08-19T08:29:26;16.50;;;11.00;;
17913;SDS011;9082;50.742;8.238;2022-08-19T08:31:53;16.37;;;9.37;;
17913;SDS011;9082;50.742;8.238;2022-08-19T08:34:20;16.80;;;10.20;;
17913;SDS011;9082;50.742;8.238;2022-08-19T08:36:47;13.23;;;8.80;;
17913;SDS011;9082;50.742;8.238;2022-08-19T08:39:17;19.30;;;11.20;;
17913;SDS011;9082;50.742;8.238;2022-08-19T08:41:47;15.97;;;11.23;;
17913;SDS011;9082;50.742;8.238;2022-08-19T08:44:20;15.77;;;10.17;;
17913;SDS011;9082;50.742;8.238;2022-08-19T08:46:49;19.37;;;11.73;;
17913;SDS011;9082;50.742;8.238;2022-08-19T08:49:20;17.80;;;10.30;;
17913;SDS011;9082;50.742;8.238;2022-08-19T08:51:51;19.60;;;12.77;;
17913;SDS011;9082;50.742;8.238;2022-08-19T08:54:20;25.63;;;13.03;;
17913;SDS011;9082;50.742;8.238;2022-08-19T08:56:51;28.73;;;17.93;;
17913;SDS011;9082;50.742;8.238;2022-08-19T08:59:24;25.33;;;15.67;;
17913;SDS011;9082;50.742;8.238;2022-08-19T09:01:53;30.33;;;16.57;;
17913;SDS011;9082;50.742;8.238;2022-08-19T09:04:20;23.37;;;13.77;;
17913;SDS011;9082;50.742;8.238;2022-08-19T09:06:49;25.97;;;13.07;;
17913;SDS011;9082;50.742;8.238;2022-08-19T09:09:20;24.00;;;15.67;;
17913;SDS011;9082;50.742;8.238;2022-08-19T09:11:54;26.13;;;16.63;;
17913;SDS011;9082;50.742;8.238;2022-08-19T09:14:32;25.83;;;16.33;;
17913;SDS011;9082;50.742;8.238;2022-08-19T09:17:00;23.57;;;15.70;;
17913;SDS011;9082;50.742;8.238;2022-08-19T09:19:28;21.47;;;14.47;;
17913;SDS011;9082;50.742;8.238;2022-08-19T09:21:55;24.30;;;15.00;;
17913;SDS011;9082;50.742;8.238;2022-08-19T09:24:25;20.03;;;14.03;;
17913;SDS011;9082;50.742;8.238;2022-08-19T09:26:53;24.03;;;15.07;;
17913;SDS011;9082;50.742;8.238;2022-08-19T09:29:20;20.53;;;14.93;;
17913;SDS011;9082;50.742;8.238;2022-08-19T09:31:48;22.00;;;14.03;;
17913;SDS011;9082;50.742;8.238;2022-08-19T09:34:16;20.73;;;14.23;;
17913;SDS011;9082;50.742;8.238;2022-08-19T09:36:44;22.13;;;14.47;;
17913;SDS011;9082;50.742;8.238;2022-08-19T09:39:12;20.57;;;14.93;;
17913;SDS011;9082;50.742;8.238;2022-08-19T09:41:39;20.30;;;13.50;;
17913;SDS011;9082;50.742;8.238;2022-08-19T09:44:06;17.10;;;12.30;;
17913;SDS011;9082;50.742;8.238;2022-08-19T09:46:33;17.90;;;11.90;;
17913;SDS011;9082;50.742;8.238;2022-08-19T09:49:02;15.43;;;11.10;;
17913;SDS011;9082;50.742;8.238;2022-08-19T09:51:31;16.00;;;11.30;;
17913;SDS011;9082;50.742;8.238;2022-08-19T09:53:59;15.53;;;11.13;;
17913;SDS011;9082;50.742;8.238;2022-08-19T09:56:26;13.30;;;10.87;;
17913;SDS011;9082;50.742;8.238;2022-08-19T09:58:55;15.30;;;11.17;;
17913;SDS011;9082;50.742;8.238;2022-08-19T10:01:23;14.90;;;11.70;;
17913;SDS011;9082;50.742;8.238;2022-08-19T10:03:51;16.43;;;11.27;;
17913;SDS011;9082;50.742;8.238;2022-08-19T10:06:20;13.97;;;10.67;;
17913;SDS011;9082;50.742;8.238;2022-08-19T10:08:48;13.63;;;10.77;;
17913;SDS011;9082;50.742;8.238;2022-08-19T10:11:16;16.00;;;11.00;;
17913;SDS011;9082;50.742;8.238;2022-08-19T10:13:43;15.70;;;10.50;;
17913;SDS011;9082;50.742;8.238;2022-08-19T10:16:12;15.33;;;10.70;;
17913;SDS011;9082;50.742;8.238;2022-08-19T10:18:40;16.70;;;10.83;;
17913;SDS011;9082;50.742;8.238;2022-08-19T10:21:10;17.03;;;11.07;;
17913;SDS011;9082;50.742;8.238;2022-08-19T10:23:40;20.60;;;11.40;;
17913;SDS011;9082;50.742;8.238;2022-08-19T10:26:10;18.27;;;10.47;;
17913;SDS011;9082;50.742;8.238;2022-08-19T10:28:37;19.90;;;10.60;;
17913;SDS011;9082;50.742;8.238;2022-08-19T10:31:05;13.60;;;10.07;;
17913;SDS011;9082;50.742;8.238;2022-08-19T10:33:33;16.77;;;10.87;;
17913;SDS011;9082;50.742;8.238;2022-08-19T10:36:00;18.10;;;11.50;;
17913;SDS011;9082;50.742;8.238;2022-08-19T10:38:27;11.00;;;9.40;;
17913;SDS011;9082;50.742;8.238;2022-08-19T10:40:56;16.23;;;9.97;;
17913;SDS011;9082;50.742;8.238;2022-08-19T10:43:23;14.37;;;9.70;;
17913;SDS011;9082;50.742;8.238;2022-08-19T10:45:54;16.00;;;9.50;;
17913;SDS011;9082;50.742;8.238;2022-08-19T10:48:24;15.40;;;9.00;;
17913;SDS011;9082;50.742;8.238;2022-08-19T10:50:51;12.27;;;8.67;;
17913;SDS011;9082;50.742;8.238;2022-08-19T10:53:36;12.70;;;8.37;;
17913;SDS011;9082;50.742;8.238;2022-08-19T10:56:05;12.17;;;8.10;;
17913;SDS011;9082;50.742;8.238;2022-08-19T10:58:50;13.33;;;7.30;;
17913;SDS011;9082;50.742;8.238;2022-08-19T11:01:17;13.80;;;8.27;;
17913;SDS011;9082;50.742;8.238;2022-08-19T11:03:45;13.40;;;7.80;;
17913;SDS011;9082;50.742;8.238;2022-08-19T11:06:12;9.60;;;6.90;;
17913;SDS011;9082;50.742;8.238;2022-08-19T11:08:39;10.57;;;6.83;;
17913;SDS011;9082;50.742;8.238;2022-08-19T11:11:08;7.60;;;6.00;;
17913;SDS011;9082;50.742;8.238;2022-08-19T11:13:36;9.30;;;6.10;;
17913;SDS011;9082;50.742;8.238;2022-08-19T11:16:05;10.33;;;6.30;;
17913;SDS011;9082;50.742;8.238;2022-08-19T11:18:34;9.73;;;5.60;;
17913;SDS011;9082;50.742;8.238;2022-08-19T11:21:06;6.93;;;5.37;;
17913;SDS011;9082;50.742;8.238;2022-08-19T11:23:33;9.57;;;5.80;;
17913;SDS011;9082;50.742;8.238;2022-08-19T11:26:00;7.67;;;5.13;;
17913;SDS011;9082;50.742;8.238;2022-08-19T11:28:29;5.50;;;4.50;;
17913;SDS011;9082;50.742;8.238;2022-08-19T11:30:56;7.73;;;5.87;;
17913;SDS011;9082;50.742;8.238;2022-08-19T11:33:23;7.67;;;5.20;;
17913;SDS011;9082;50.742;8.238;2022-08-19T11:35:52;10.90;;;5.00;;
17913;SDS011;9082;50.742;8.238;2022-08-19T11:38:19;7.07;;;5.00;;
17913;SDS011;9082;50.742;8.238;2022-08-19T11:40:53;8.77;;;5.17;;
17913;SDS011;9082;50.742;8.238;2022-08-19T11:43:20;7.40;;;4.77;;
17913;SDS011;9082;50.742;8.238;2022-08-19T11:45:49;8.17;;;4.97;;
17913;SDS011;9082;50.742;8.238;2022-08-19T11:48:16;11.37;;;5.40;;
17913;SDS011;9082;50.742;8.238;2022-08-19T11:50:46;6.43;;;5.10;;
17913;SDS011;9082;50.742;8.238;2022-08-19T11:53:14;7.47;;;4.30;;
17913;SDS011;9082;50.742;8.238;2022-08-19T11:55:41;8.50;;;4.40;;
17913;SDS011;9082;50.742;8.238;2022-08-19T11:58:09;4.80;;;3.80;;
17913;SDS011;9082;50.742;8.238;2022-08-19T12:00:37;6.50;;;4.20;;
17913;SDS011;9082;50.742;8.238;2022-08-19T12:03:06;5.63;;;3.80;;
17913;SDS011;9082;50.742;8.238;2022-08-19T12:05:35;6.43;;;4.30;;
17913;SDS011;9082;50.742;8.238;2022-08-19T12:08:03;5.60;;;4.20;;
17913;SDS011;9082;50.742;8.238;2022-08-19T12:10:30;8.07;;;4.50;;
17913;SDS011;9082;50.742;8.238;2022-08-19T12:12:58;5.33;;;4.07;;
17913;SDS011;9082;50.742;8.238;2022-08-19T12:15:25;4.43;;;3.73;;
17913;SDS011;9082;50.742;8.238;2022-08-19T12:17:53;5.30;;;3.90;;
17913;SDS011;9082;50.742;8.238;2022-08-19T12:20:23;5.57;;;4.23;;
17913;SDS011;9082;50.742;8.238;2022-08-19T12:22:51;6.60;;;4.10;;
17913;SDS011;9082;50.742;8.238;2022-08-19T12:25:18;5.90;;;4.50;;
17913;SDS011;9082;50.742;8.238;2022-08-19T12:27:46;11.50;;;4.27;;
17913;SDS011;9082;50.742;8.238;2022-08-19T12:30:15;6.40;;;4.33;;
17913;SDS011;9082;50.742;8.238;2022-08-19T12:32:42;9.03;;;4.63;;
17913;SDS011;9082;50.742;8.238;2022-08-19T12:35:09;9.90;;;5.07;;
17913;SDS011;9082;50.742;8.238;2022-08-19T12:37:38;5.93;;;4.57;;
17913;SDS011;9082;50.742;8.238;2022-08-19T12:40:09;8.03;;;4.73;;
17913;SDS011;9082;50.742;8.238;2022-08-19T12:42:37;5.53;;;4.43;;
17913;SDS011;9082;50.742;8.238;2022-08-19T12:45:07;6.50;;;3.80;;
17913;SDS011;9082;50.742;8.238;2022-08-19T12:47:35;6.07;;;3.90;;
17913;SDS011;9082;50.742;8.238;2022-08-19T12:50:03;6.03;;;3.77;;
17913;SDS011;9082;50.742;8.238;2022-08-19T12:52:33;5.10;;;4.30;;
17913;SDS011;9082;50.742;8.238;2022-08-19T12:55:04;8.63;;;4.80;;
17913;SDS011;9082;50.742;8.238;2022-08-19T12:57:32;8.07;;;4.63;;
17913;SDS011;9082;50.742;8.238;2022-08-19T13:00:01;8.23;;;5.03;;
17913;SDS011;9082;50.742;8.238;2022-08-19T13:02:29;7.33;;;4.20;;
17913;SDS011;9082;50.742;8.238;2022-08-19T13:04:57;7.93;;;3.80;;
17913;SDS011;9082;50.742;8.238;2022-08-19T13:07:24;5.60;;;3.90;;
17913;SDS011;9082;50.742;8.238;2022-08-19T13:09:51;7.30;;;4.13;;
17913;SDS011;9082;50.742;8.238;2022-08-19T13:12:20;6.90;;;4.57;;
17913;SDS011;9082;50.742;8.238;2022-08-19T13:14:49;7.63;;;4.17;;
17913;SDS011;9082;50.742;8.238;2022-08-19T13:17:16;6.27;;;4.07;;
17913;SDS011;9082;50.742;8.238;2022-08-19T13:19:44;6.43;;;4.10;;
17913;SDS011;9082;50.742;8.238;2022-08-19T13:22:11;7.60;;;4.40;;
17913;SDS011;9082;50.742;8.238;2022-08-19T13:24:38;5.77;;;3.80;;
17913;SDS011;9082;50.742;8.238;2022-08-19T13:27:06;7.17;;;4.20;;
17913;SDS011;9082;50.742;8.238;2022-08-19T13:29:35;7.80;;;4.93;;
17913;SDS011;9082;50.742;8.238;2022-08-19T13:32:20;9.33;;;4.33;;
17913;SDS011;9082;50.742;8.238;2022-08-19T13:35:05;6.73;;;4.40;;
17913;SDS011;9082;50.742;8.238;2022-08-19T13:37:33;6.80;;;4.17;;
17913;SDS011;9082;50.742;8.238;2022-08-19T13:40:11;6.27;;;3.90;;
17913;SDS011;9082;50.742;8.238;2022-08-19T13:42:40;4.37;;;3.80;;
17913;SDS011;9082;50.742;8.238;2022-08-19T13:45:09;4.90;;;3.80;;
17913;SDS011;9082;50.742;8.238;2022-08-19T13:47:36;5.27;;;4.03;;
17913;SDS011;9082;50.742;8.238;2022-08-19T13:50:09;7.50;;;3.97;;
17913;SDS011;9082;50.742;8.238;2022-08-19T13:52:37;4.77;;;3.77;;
17913;SDS011;9082;50.742;8.238;2022-08-19T13:55:04;4.90;;;4.10;;
17913;SDS011;9082;50.742;8.238;2022-08-19T13:57:32;5.80;;;4.10;;
17913;SDS011;9082;50.742;8.238;2022-08-19T14:00:00;7.17;;;4.03;;
17913;SDS011;9082;50.742;8.238;2022-08-19T14:02:29;6.27;;;4.10;;
17913;SDS011;9082;50.742;8.238;2022-08-19T14:04:56;6.63;;;3.80;;
17913;SDS011;9082;50.742;8.238;2022-08-19T14:07:23;5.20;;;4.10;;
17913;SDS011;9082;50.742;8.238;2022-08-19T14:09:50;4.97;;;4.40;;
17913;SDS011;9082;50.742;8.238;2022-08-19T14:12:18;7.40;;;4.10;;
17913;SDS011;9082;50.742;8.238;2022-08-19T14:14:46;6.20;;;4.30;;
17913;SDS011;9082;50.742;8.238;2022-08-19T14:17:15;9.17;;;4.00;;
17913;SDS011;9082;50.742;8.238;2022-08-19T14:19:43;6.63;;;4.40;;
17913;SDS011;9082;50.742;8.238;2022-08-19T14:22:10;7.80;;;4.53;;
17913;SDS011;9082;50.742;8.238;2022-08-19T14:24:38;9.53;;;4.10;;
17913;SDS011;9082;50.742;8.238;2022-08-19T14:27:05;6.67;;;3.70;;
17913;SDS011;9082;50.742;8.238;2022-08-19T14:29:34;5.50;;;4.13;;
17913;SDS011;9082;50.742;8.238;2022-08-19T14:32:01;5.27;;;4.07;;
17913;SDS011;9082;50.742;8.238;2022-08-19T14:34:29;5.30;;;4.10;;
17913;SDS011;9082;50.742;8.238;2022-08-19T14:37:00;7.87;;;4.57;;
17913;SDS011;9082;50.742;8.238;2022-08-19T14:39:27;8.33;;;4.80;;
17913;SDS011;9082;50.742;8.238;2022-08-19T14:41:54;5.60;;;4.80;;
17913;SDS011;9082;50.742;8.238;2022-08-19T14:44:24;8.20;;;4.80;;
17913;SDS011;9082;50.742;8.238;2022-08-19T14:46:51;7.93;;;5.33;;
17913;SDS011;9082;50.742;8.238;2022-08-19T14:49:18;8.10;;;4.97;;
17913;SDS011;9082;50.742;8.238;2022-08-19T14:51:45;5.40;;;4.90;;